Time;durP1;ratioP1;P1;durP2;ratioP2;P2;SDS_P1;SDS_P2;PMS_P1;PMS_P2;Temp;Humidity;BMP_temperature;BMP_pressure;BME280_temperature;BME280_humidity;BME280_pressure;Samples;Min_cycle;Max_cycle;Signal;HPM_P1;HPM_P2
2022/11/19 00:01:26;;;;;;;10.02;7.20;;;5.50;99.90;;;;;;5010041;28;20022;-87
2022/11/19 00:03:54;;;;;;;10.90;6.85;;;5.50;99.90;;;;;;5002853;28;20022;-85
2022/11/19 00:06:26;;;;;;;9.00;6.25;;;5.50;99.90;;;;;;5007832;28;20030;-86
2022/11/19 00:08:53;;;;;;;9.95;6.93;;;5.50;99.90;;;;;;5004725;28;20405;-88
2022/11/19 00:14:06;;;;;;;11.00;8.00;;;5.40;99.90;;;;;;5000895;28;20080;-87
2022/11/19 00:16:32;;;;;;;11.45;7.68;;;5.40;99.90;;;;;;5004722;28;20127;-86
2022/11/19 00:18:58;;;;;;;11.50;7.28;;;5.40;99.90;;;;;;5011079;28;20022;-86
2022/11/19 00:21:24;;;;;;;11.30;7.43;;;5.40;99.90;;;;;;5005864;28;20022;-87
2022/11/19 00:23:53;;;;;;;10.55;7.68;;;5.40;99.90;;;;;;5008587;28;20022;-85
2022/11/19 00:26:19;;;;;;;11.40;7.68;;;5.40;99.90;;;;;;5012512;28;20025;-85
2022/11/19 00:28:45;;;;;;;11.00;7.57;;;5.40;99.90;;;;;;5010947;28;20022;-86
2022/11/19 00:31:13;;;;;;;11.32;7.88;;;5.30;99.90;;;;;;5010572;28;20072;-85
2022/11/19 00:33:40;;;;;;;13.30;8.90;;;5.30;99.90;;;;;;5005800;28;20030;-85
2022/11/19 00:36:09;;;;;;;12.48;9.13;;;5.30;99.90;;;;;;5013845;28;20433;-87
2022/11/19 00:38:35;;;;;;;15.10;9.68;;;5.30;99.90;;;;;;5009029;28;20030;-85
2022/11/19 00:41:02;;;;;;;15.30;10.23;;;5.30;99.90;;;;;;4994848;28;20118;-85
2022/11/19 00:43:46;;;;;;;15.88;10.52;;;5.20;99.90;;;;;;4986604;28;20062;-86
2022/11/19 00:46:24;;;;;;;14.35;10.00;;;5.20;99.90;;;;;;4996613;28;20037;-85
2022/11/19 00:48:55;;;;;;;13.98;9.73;;;5.20;99.90;;;;;;4981025;28;20029;-85
2022/11/19 00:51:22;;;;;;;12.52;8.80;;;5.10;99.90;;;;;;4998460;28;20026;-87
2022/11/19 00:53:47;;;;;;;11.38;8.63;;;5.10;99.90;;;;;;5001513;28;20048;-86
2022/11/19 00:56:15;;;;;;;14.43;9.80;;;5.10;99.90;;;;;;5001955;28;20030;-87
2022/11/19 00:58:42;;;;;;;12.18;9.18;;;5.10;99.90;;;;;;5015262;28;20107;-85
2022/11/19 01:01:08;;;;;;;13.27;9.38;;;5.10;99.90;;;;;;4997686;28;20054;-86
2022/11/19 01:03:34;;;;;;;13.95;9.73;;;5.10;99.90;;;;;;4993444;28;20386;-85
2022/11/19 01:06:00;;;;;;;13.23;9.43;;;5.10;99.90;;;;;;4989708;28;20044;-85
2022/11/19 01:08:27;;;;;;;15.13;10.40;;;5.10;99.90;;;;;;4993030;28;20337;-85
2022/11/19 01:10:53;;;;;;;16.25;10.25;;;5.00;99.90;;;;;;5015878;28;20080;-86
2022/11/19 01:13:33;;;;;;;12.73;9.13;;;5.00;99.90;;;;;;4996452;28;20026;-86
2022/11/19 01:16:00;;;;;;;14.90;9.90;;;5.10;99.90;;;;;;4993723;28;20080;-85
2022/11/19 01:18:26;;;;;;;13.45;8.60;;;5.00;99.90;;;;;;4993152;28;20019;-85
2022/11/19 01:20:53;;;;;;;12.65;8.75;;;5.00;99.90;;;;;;4995722;28;20025;-86
2022/11/19 01:23:19;;;;;;;14.15;9.43;;;5.00;99.90;;;;;;4984834;28;20132;-86
2022/11/19 01:25:44;;;;;;;13.48;8.85;;;5.00;99.90;;;;;;4996531;28;20065;-85
2022/11/19 01:28:10;;;;;;;14.60;9.60;;;5.00;99.90;;;;;;4992965;28;20046;-85
2022/11/19 01:30:39;;;;;;;15.10;10.60;;;5.00;99.90;;;;;;4980672;28;20030;-85
2022/11/19 01:33:06;;;;;;;15.70;10.77;;;4.90;99.90;;;;;;4991212;28;20092;-85
2022/11/19 01:35:33;;;;;;;15.57;10.85;;;4.90;99.90;;;;;;5007643;28;20096;-85
2022/11/19 01:37:59;;;;;;;13.75;9.73;;;4.90;99.90;;;;;;4971391;28;20058;-86
2022/11/19 01:40:28;;;;;;;15.30;10.23;;;4.90;99.90;;;;;;4970109;28;20019;-85
2022/11/19 01:42:55;;;;;;;15.05;10.15;;;4.80;99.90;;;;;;4984271;28;20027;-84
2022/11/19 01:45:37;;;;;;;14.07;9.80;;;4.80;99.90;;;;;;4979787;28;20097;-86
2022/11/19 01:48:08;;;;;;;15.73;11.52;;;4.80;99.90;;;;;;4964773;28;20353;-85
2022/11/19 01:50:40;;;;;;;15.88;10.68;;;4.70;99.90;;;;;;4974731;28;20026;-85
2022/11/19 01:53:08;;;;;;;16.27;11.40;;;4.70;99.90;;;;;;4971897;28;20030;-85
2022/11/19 01:55:38;;;;;;;17.92;12.40;;;4.70;99.90;;;;;;4977539;28;20478;-85
2022/11/19 01:58:06;;;;;;;15.98;11.15;;;4.70;99.90;;;;;;4973911;28;20064;-85
2022/11/19 02:00:32;;;;;;;15.65;10.88;;;4.70;99.90;;;;;;4961838;28;20431;-86
2022/11/19 02:02:58;;;;;;;14.82;10.65;;;4.70;99.90;;;;;;4977951;28;20050;-86
2022/11/19 02:05:25;;;;;;;16.20;11.07;;;4.70;99.90;;;;;;4991571;28;20097;-86
2022/11/19 02:07:56;;;;;;;16.27;11.40;;;4.70;99.90;;;;;;4961451;28;20030;-86
2022/11/19 02:10:56;;;;;;;18.95;13.02;;;4.60;99.90;;;;;;4984950;28;20044;-86
2022/11/19 02:13:37;;;;;;;17.42;12.10;;;4.60;99.90;;;;;;4977503;28;20026;-85
2022/11/19 02:16:31;;;;;;;18.92;11.65;;;4.50;99.90;;;;;;4988414;28;20557;-85
2022/11/19 02:19:40;;;;;;;17.67;12.50;;;4.50;99.90;;;;;;4987598;28;20022;-85
2022/11/19 02:22:25;;;;;;;17.42;12.43;;;4.50;99.90;;;;;;4980840;28;20490;-85
2022/11/19 02:24:54;;;;;;;17.90;12.75;;;4.50;99.90;;;;;;4961519;28;20031;-85
2022/11/19 02:27:29;;;;;;;21.35;14.20;;;4.40;99.90;;;;;;4988565;28;20022;-85
2022/11/19 02:30:07;;;;;;;19.05;13.10;;;4.40;99.90;;;;;;4994621;28;20027;-86
2022/11/19 02:32:46;;;;;;;16.98;12.32;;;4.40;99.90;;;;;;4971122;28;20375;-86
2022/11/19 02:35:21;;;;;;;18.73;13.45;;;4.40;99.90;;;;;;4979916;28;20411;-85
2022/11/19 02:38:02;;;;;;;17.63;12.68;;;4.40;99.90;;;;;;5020849;28;20056;-85
2022/11/19 02:40:39;;;;;;;21.55;15.18;;;4.40;99.90;;;;;;5012615;28;20044;-85
2022/11/19 02:43:20;;;;;;;16.92;12.32;;;4.30;99.90;;;;;;5015793;28;20390;-85
2022/11/19 02:45:51;;;;;;;18.45;12.65;;;4.40;99.90;;;;;;5014689;28;20022;-86
2022/11/19 02:48:22;;;;;;;17.15;12.77;;;4.30;99.90;;;;;;4999253;28;20623;-86
2022/11/19 02:50:52;;;;;;;18.02;12.73;;;4.30;99.90;;;;;;5015998;28;20187;-85
2022/11/19 02:53:21;;;;;;;19.75;13.75;;;4.40;99.90;;;;;;5013054;28;20049;-85
2022/11/19 03:04:32;;;;;;;17.15;12.93;;;4.20;99.90;;;;;;4953994;29;20407;-85
2022/11/19 03:07:21;;;;;;;20.65;14.23;;;4.20;99.90;;;;;;4953471;29;20034;-85
2022/11/19 03:09:55;;;;;;;20.02;14.13;;;4.30;99.90;;;;;;4937243;29;20118;-86
2022/11/19 03:12:48;;;;;;;19.35;14.07;;;4.30;99.90;;;;;;4952189;28;20387;-85
2022/11/19 03:18:49;;;;;;;19.73;14.02;;;4.20;99.90;;;;;;5019525;28;20040;-85
2022/11/19 03:21:24;;;;;;;18.85;13.35;;;4.20;99.90;;;;;;4993712;28;20030;-85
2022/11/19 03:24:01;;;;;;;20.10;13.77;;;4.10;99.90;;;;;;5013597;28;20026;-85
2022/11/19 03:26:34;;;;;;;20.02;14.70;;;4.10;99.90;;;;;;5005701;28;20045;-90
2022/11/19 03:29:04;;;;;;;20.48;15.00;;;4.10;99.90;;;;;;4999196;28;20064;-85
2022/11/19 03:31:33;;;;;;;18.98;14.02;;;4.10;99.90;;;;;;5011943;28;20108;-85
2022/11/19 03:34:04;;;;;;;20.73;14.63;;;4.00;99.90;;;;;;5014882;28;20108;-85
2022/11/19 03:36:36;;;;;;;20.05;14.85;;;4.00;99.90;;;;;;5012941;28;20050;-86
2022/11/19 03:39:07;;;;;;;20.77;15.00;;;4.00;99.90;;;;;;5015472;28;20026;-85
2022/11/19 03:41:36;;;;;;;21.15;15.43;;;3.90;99.90;;;;;;5012570;28;20026;-85
2022/11/19 03:44:13;;;;;;;20.08;14.35;;;3.90;99.90;;;;;;5012145;28;20028;-86
2022/11/19 03:46:41;;;;;;;21.02;15.55;;;3.90;99.90;;;;;;5029415;28;20489;-85
2022/11/19 03:49:08;;;;;;;20.63;15.27;;;3.90;99.90;;;;;;5011249;28;20081;-84
2022/11/19 03:51:45;;;;;;;21.65;15.80;;;3.90;99.90;;;;;;5010961;28;20026;-85
2022/11/19 03:54:11;;;;;;;23.02;15.88;;;3.90;99.90;;;;;;5012898;28;20478;-85
2022/11/19 03:56:39;;;;;;;22.80;15.82;;;3.80;99.90;;;;;;5001875;28;20123;-85
2022/11/19 03:59:08;;;;;;;22.42;15.82;;;3.80;99.90;;;;;;5014741;28;20033;-85
2022/11/19 04:01:35;;;;;;;21.40;15.52;;;3.70;99.90;;;;;;5016161;28;20113;-85
2022/11/19 04:06:45;;;;;;;23.25;16.25;;;3.70;99.90;;;;;;5020150;28;20080;-85
2022/11/19 04:09:11;;;;;;;21.17;14.82;;;3.70;99.90;;;;;;5022348;28;20462;-84
2022/11/19 04:11:37;;;;;;;21.15;14.85;;;3.70;99.90;;;;;;5025285;28;20100;-85
2022/11/19 04:14:04;;;;;;;19.65;14.20;;;3.70;99.90;;;;;;5016854;28;20621;-85
2022/11/19 04:16:29;;;;;;;21.38;15.77;;;3.70;99.90;;;;;;5018784;28;20087;-85
2022/11/19 04:18:55;;;;;;;23.05;16.02;;;3.70;99.90;;;;;;5015700;28;20056;-85
2022/11/19 04:21:21;;;;;;;21.05;15.20;;;3.70;99.90;;;;;;5018925;28;20029;-85
2022/11/19 04:23:46;;;;;;;21.83;14.73;;;3.60;99.90;;;;;;5016737;28;20045;-83
2022/11/19 04:26:12;;;;;;;19.65;14.82;;;3.60;99.90;;;;;;5016970;28;20045;-84
2022/11/19 04:28:38;;;;;;;21.67;15.13;;;3.50;99.90;;;;;;5014919;28;20028;-84
2022/11/19 04:31:03;;;;;;;20.52;14.07;;;3.40;99.90;;;;;;5018337;28;20128;-84
2022/11/19 04:33:29;;;;;;;21.40;15.55;;;3.40;99.90;;;;;;5015889;28;20029;-86
2022/11/19 04:35:54;;;;;;;22.30;15.93;;;3.40;99.90;;;;;;5017945;28;20028;-86
2022/11/19 04:38:20;;;;;;;21.67;16.02;;;3.40;99.90;;;;;;5020062;28;20084;-83
2022/11/19 04:40:46;;;;;;;25.02;17.20;;;3.40;99.90;;;;;;5004245;28;20022;-85
2022/11/19 04:43:11;;;;;;;25.30;18.10;;;3.30;99.90;;;;;;5015074;28;20393;-85
2022/11/19 04:45:37;;;;;;;23.02;15.95;;;3.30;99.90;;;;;;5004808;28;20025;-83
2022/11/19 04:48:04;;;;;;;24.45;17.10;;;3.30;99.90;;;;;;5015646;28;20433;-84
2022/11/19 04:50:30;;;;;;;24.63;17.08;;;3.40;99.90;;;;;;5028919;28;20036;-84
2022/11/19 04:52:56;;;;;;;21.40;15.13;;;3.40;99.90;;;;;;5031235;28;20061;-84
2022/11/19 04:55:21;;;;;;;23.67;15.93;;;3.40;99.90;;;;;;5015321;28;20026;-84
2022/11/19 04:57:54;;;;;;;21.52;15.45;;;3.40;99.90;;;;;;5014625;28;20088;-84
2022/11/19 05:00:20;;;;;;;25.60;17.73;;;3.40;99.90;;;;;;5016315;28;20029;-85
2022/11/19 05:02:45;;;;;;;25.52;17.42;;;3.40;99.90;;;;;;5016452;28;20076;-84
2022/11/19 05:05:11;;;;;;;22.95;16.05;;;3.40;99.90;;;;;;5018449;28;20021;-86
2022/11/19 05:07:37;;;;;;;24.75;17.50;;;3.40;99.90;;;;;;5014912;28;20543;-84
2022/11/19 05:10:03;;;;;;;26.08;18.63;;;3.40;99.90;;;;;;5014985;28;20034;-84
2022/11/19 05:12:29;;;;;;;25.73;18.45;;;3.40;99.90;;;;;;5014597;28;20049;-84
2022/11/19 05:14:57;;;;;;;23.80;16.05;;;3.40;99.90;;;;;;5007431;28;20018;-85
2022/11/19 05:17:23;;;;;;;23.95;15.98;;;3.40;99.90;;;;;;5012149;28;20218;-84
2022/11/19 05:19:48;;;;;;;25.55;18.08;;;3.40;99.90;;;;;;5016027;28;20038;-85
2022/11/19 05:22:14;;;;;;;23.55;16.27;;;3.30;99.90;;;;;;5014797;28;20206;-84
2022/11/19 05:24:40;;;;;;;23.75;16.70;;;3.30;99.90;;;;;;5008324;28;20027;-85
2022/11/19 05:27:05;;;;;;;26.23;18.33;;;3.30;99.90;;;;;;4998186;28;20018;-85
2022/11/19 05:29:31;;;;;;;26.17;17.90;;;3.30;99.90;;;;;;4994884;28;20116;-86
2022/11/19 05:31:57;;;;;;;26.92;18.25;;;3.30;99.90;;;;;;5012729;28;20037;-84
2022/11/19 05:34:22;;;;;;;25.83;17.70;;;3.20;99.90;;;;;;5017759;28;20033;-84
2022/11/19 05:36:49;;;;;;;25.90;18.23;;;3.20;99.90;;;;;;5015209;28;20046;-86
2022/11/19 05:39:17;;;;;;;25.27;17.98;;;3.20;99.90;;;;;;5034467;28;20047;-84
2022/11/19 05:41:45;;;;;;;26.40;17.80;;;3.20;99.90;;;;;;5031507;28;20068;-85
2022/11/19 05:44:11;;;;;;;25.27;18.27;;;3.20;99.90;;;;;;5014324;28;20026;-84
2022/11/19 05:46:44;;;;;;;25.70;17.67;;;3.20;99.90;;;;;;5015015;28;20036;-84
2022/11/19 05:49:10;;;;;;;23.98;16.58;;;3.10;99.90;;;;;;5015562;28;20022;-84
2022/11/19 05:51:48;;;;;;;25.20;16.77;;;3.10;99.90;;;;;;5014547;28;20018;-85
2022/11/19 05:54:14;;;;;;;25.67;16.85;;;3.10;99.90;;;;;;5003888;28;20383;-84
2022/11/19 05:56:39;;;;;;;26.10;17.60;;;3.10;99.90;;;;;;5013727;28;20092;-85
2022/11/19 05:59:05;;;;;;;25.85;15.77;;;3.10;99.90;;;;;;5015033;28;20061;-85
2022/11/19 06:01:31;;;;;;;24.55;17.70;;;3.10;99.90;;;;;;5016851;28;20022;-85
2022/11/19 06:03:57;;;;;;;23.58;16.33;;;3.00;99.90;;;;;;5014737;28;20029;-85
2022/11/19 06:06:23;;;;;;;25.90;17.60;;;3.10;99.90;;;;;;5023667;28;20031;-85
2022/11/19 06:08:49;;;;;;;21.48;15.10;;;3.10;99.90;;;;;;5013676;28;20030;-83
2022/11/19 06:14:02;;;;;;;24.08;16.48;;;3.10;99.90;;;;;;5016080;28;20037;-84
2022/11/19 06:16:30;;;;;;;25.00;17.00;;;3.10;99.90;;;;;;5014839;28;20386;-85
2022/11/19 06:18:56;;;;;;;26.27;18.65;;;3.10;99.90;;;;;;5009446;28;20105;-86
2022/11/19 06:21:21;;;;;;;26.70;18.98;;;3.00;99.90;;;;;;5014923;28;20105;-84
2022/11/19 06:23:48;;;;;;;25.05;17.10;;;3.00;99.90;;;;;;5012509;28;20121;-84
2022/11/19 06:26:25;;;;;;;25.85;17.33;;;2.90;99.90;;;;;;5016292;28;20049;-84
2022/11/19 06:28:54;;;;;;;24.67;17.45;;;2.90;99.90;;;;;;5027536;28;20097;-84
2022/11/19 06:31:22;;;;;;;28.08;19.27;;;2.90;99.90;;;;;;5004387;28;20471;-83
2022/11/19 06:33:48;;;;;;;24.80;17.33;;;2.80;99.90;;;;;;4977761;28;20085;-84
2022/11/19 06:36:15;;;;;;;25.98;17.33;;;2.80;99.90;;;;;;5013390;28;20549;-83
2022/11/19 06:38:42;;;;;;;24.60;17.42;;;2.80;99.90;;;;;;5004193;28;20066;-83
2022/11/19 06:41:08;;;;;;;24.92;17.15;;;2.80;99.90;;;;;;5013100;28;20026;-84
2022/11/19 06:43:33;;;;;;;24.23;16.60;;;2.70;99.90;;;;;;5013391;28;20026;-83
2022/11/19 06:46:03;;;;;;;22.88;16.38;;;2.70;99.90;;;;;;5013101;28;20026;-84
2022/11/19 06:48:29;;;;;;;25.10;17.13;;;2.70;99.90;;;;;;5013255;28;20466;-84
2022/11/19 06:50:55;;;;;;;25.50;17.05;;;2.70;99.90;;;;;;5005897;28;20034;-84
2022/11/19 06:53:21;;;;;;;23.45;15.57;;;2.70;99.90;;;;;;5015097;28;20067;-86
2022/11/19 06:55:47;;;;;;;23.20;15.80;;;2.60;99.90;;;;;;5013071;28;20021;-84
2022/11/19 06:58:16;;;;;;;24.45;16.17;;;2.70;99.90;;;;;;5012836;28;20030;-85
2022/11/19 07:00:42;;;;;;;21.90;15.10;;;2.60;99.90;;;;;;5005602;28;20026;-84
2022/11/19 07:03:07;;;;;;;23.05;16.13;;;2.60;99.90;;;;;;5015756;28;20120;-84
2022/11/19 07:05:33;;;;;;;22.73;16.23;;;2.60;99.90;;;;;;5026399;28;20054;-83
2022/11/19 07:07:59;;;;;;;25.30;17.63;;;2.60;99.90;;;;;;5018548;28;20040;-85
2022/11/19 07:10:25;;;;;;;23.90;15.80;;;2.60;99.90;;;;;;5015798;28;20022;-84
2022/11/19 07:12:50;;;;;;;23.73;15.88;;;2.60;99.90;;;;;;5018745;28;20026;-84
2022/11/19 07:15:16;;;;;;;23.88;16.35;;;2.60;99.90;;;;;;5012987;28;20053;-84
2022/11/19 07:17:45;;;;;;;22.38;15.52;;;2.60;99.90;;;;;;5015220;28;20040;-84
2022/11/19 07:20:11;;;;;;;28.92;18.52;;;2.60;99.90;;;;;;5008284;28;20021;-83
2022/11/19 07:22:37;;;;;;;27.38;17.13;;;2.60;99.90;;;;;;5006974;28;20108;-84
2022/11/19 07:25:02;;;;;;;27.15;16.88;;;2.50;99.90;;;;;;5012347;28;20026;-85
2022/11/19 07:27:28;;;;;;;25.50;17.15;;;2.50;99.90;;;;;;5012717;28;20033;-84
2022/11/19 07:29:54;;;;;;;28.80;17.63;;;2.50;99.90;;;;;;5032684;28;20053;-84
2022/11/19 07:32:19;;;;;;;24.67;16.25;;;2.50;99.90;;;;;;5007017;28;20033;-84
2022/11/19 07:34:45;;;;;;;26.15;16.90;;;2.50;99.90;;;;;;5015277;28;20079;-84
2022/11/19 07:37:11;;;;;;;23.45;15.80;;;2.50;99.90;;;;;;5010612;28;20108;-84
2022/11/19 07:39:36;;;;;;;23.40;15.98;;;2.50;99.90;;;;;;5014792;28;20453;-85
2022/11/19 07:44:46;;;;;;;22.35;14.48;;;2.60;99.90;;;;;;5022130;28;20056;-84
2022/11/19 07:47:12;;;;;;;22.65;14.18;;;2.50;99.90;;;;;;5023177;28;20462;-83
2022/11/19 07:49:40;;;;;;;22.55;14.88;;;2.50;99.90;;;;;;5002668;28;20405;-85
2022/11/19 07:52:05;;;;;;;21.63;14.70;;;2.60;99.90;;;;;;5011853;28;20108;-83
2022/11/19 07:54:34;;;;;;;23.27;14.63;;;2.60;99.90;;;;;;5011880;28;20049;-84
2022/11/19 07:56:59;;;;;;;22.30;15.18;;;2.60;99.90;;;;;;5011573;28;20014;-84
2022/11/19 07:59:28;;;;;;;23.95;16.00;;;2.70;99.90;;;;;;5012728;28;20484;-84
2022/11/19 08:01:54;;;;;;;25.65;16.92;;;2.60;99.90;;;;;;5003637;28;20759;-84
2022/11/19 08:04:20;;;;;;;24.95;16.77;;;2.60;99.90;;;;;;5008247;28;20028;-83
2022/11/19 08:06:46;;;;;;;23.60;16.20;;;2.50;99.90;;;;;;5010452;28;20029;-85
2022/11/19 08:09:12;;;;;;;25.40;16.55;;;2.50;99.90;;;;;;5010195;28;20057;-84
2022/11/19 08:11:39;;;;;;;26.92;16.33;;;2.50;99.90;;;;;;5014488;28;20052;-87
2022/11/19 08:14:05;;;;;;;25.40;16.23;;;2.50;99.90;;;;;;5012123;28;20061;-84
2022/11/19 08:19:19;;;;;;;24.08;16.08;;;2.50;99.90;;;;;;5018852;28;20040;-85
2022/11/19 08:21:46;;;;;;;21.17;14.13;;;2.40;99.90;;;;;;5010667;28;20026;-84
2022/11/19 08:24:13;;;;;;;21.80;14.32;;;2.40;99.90;;;;;;5011393;28;20089;-84
2022/11/19 08:26:43;;;;;;;22.27;14.65;;;2.40;99.90;;;;;;5011342;28;20029;-85
2022/11/19 08:29:09;;;;;;;22.15;15.02;;;2.40;99.90;;;;;;5007461;28;20038;-85
2022/11/19 08:32:02;;;;;;;21.58;14.93;;;2.50;99.90;;;;;;5006269;28;20030;-84
2022/11/19 08:34:32;;;;;;;23.52;14.75;;;2.50;99.90;;;;;;5004900;28;20022;-84
2022/11/19 08:36:57;;;;;;;21.92;14.13;;;2.60;99.90;;;;;;5010494;28;20069;-84
2022/11/19 08:39:23;;;;;;;24.38;16.30;;;2.60;99.90;;;;;;5010903;28;20026;-86
2022/11/19 08:44:39;;;;;;;22.45;14.10;;;2.70;99.90;;;;;;5006830;28;20401;-84
2022/11/19 08:47:05;;;;;;;21.17;13.77;;;2.80;99.90;;;;;;5010572;28;20050;-85
2022/11/19 08:49:36;;;;;;;23.45;15.48;;;3.00;99.90;;;;;;5013017;28;20034;-85
2022/11/19 08:52:01;;;;;;;21.70;14.07;;;3.30;99.90;;;;;;5035595;28;20059;-85
2022/11/19 08:54:31;;;;;;;20.42;13.88;;;3.50;99.90;;;;;;5014647;28;20403;-85
2022/11/19 08:56:57;;;;;;;19.13;13.02;;;3.60;99.90;;;;;;5017471;28;20756;-83
2022/11/19 08:59:22;;;;;;;20.30;13.63;;;3.80;99.90;;;;;;5020425;28;20026;-84
2022/11/19 09:01:49;;;;;;;18.50;12.38;;;3.80;99.90;;;;;;5023582;28;20033;-86
2022/11/19 09:04:18;;;;;;;19.77;13.38;;;3.70;99.90;;;;;;5001532;28;20109;-85
2022/11/19 09:06:49;;;;;;;19.38;13.52;;;3.60;99.90;;;;;;5023843;28;20037;-85
2022/11/19 09:09:21;;;;;;;19.30;13.88;;;3.60;99.90;;;;;;5016607;28;20018;-84
2022/11/19 09:11:47;;;;;;;20.00;13.50;;;3.90;99.90;;;;;;5013989;28;20528;-84
2022/11/19 09:14:13;;;;;;;17.17;12.70;;;4.50;99.90;;;;;;5018104;28;20055;-86
2022/11/19 09:16:42;;;;;;;17.52;13.23;;;5.20;99.90;;;;;;5024364;28;20030;-84
2022/11/19 09:19:11;;;;;;;21.48;13.23;;;5.80;99.90;;;;;;5019613;28;20072;-86
2022/11/19 09:21:36;;;;;;;19.15;12.63;;;6.20;99.90;;;;;;5013346;28;20497;-85
2022/11/19 09:24:02;;;;;;;18.50;13.43;;;6.80;99.90;;;;;;5013075;28;20104;-85
2022/11/19 09:26:28;;;;;;;16.35;11.55;;;7.40;99.90;;;;;;5013799;28;20381;-87
2022/11/19 09:28:55;;;;;;;17.10;12.27;;;8.10;99.90;;;;;;5016115;28;20030;-85
2022/11/19 09:31:23;;;;;;;16.73;13.07;;;8.80;99.90;;;;;;5013667;28;20068;-87
2022/11/19 09:33:51;;;;;;;14.27;10.80;;;9.40;99.90;;;;;;5028112;28;20025;-86
2022/11/19 09:36:20;;;;;;;14.82;10.88;;;9.80;99.90;;;;;;5006127;28;20046;-85
2022/11/19 09:38:47;;;;;;;14.00;10.30;;;9.90;99.90;;;;;;5012998;28;20033;-85
2022/11/19 09:42:05;;;;;;;13.20;10.82;;;10.20;99.90;;;;;;5007086;28;20335;-85
2022/11/19 09:45:09;;;;;;;13.93;10.63;;;10.30;99.90;;;;;;4999600;28;20513;-85
2022/11/19 09:47:53;;;;;;;;;;;10.50;99.90;;;;;;5013349;28;20072;-88
2022/11/19 09:50:44;;;;;;;13.20;9.18;;;10.90;99.90;;;;;;5000097;28;19992;-85
2022/11/19 09:53:29;;;;;;;11.43;9.10;;;11.30;99.90;;;;;;5016743;28;20021;-86
2022/11/19 09:55:59;;;;;;;13.80;9.18;;;11.40;99.90;;;;;;5016244;28;20557;-86
2022/11/19 09:58:39;;;;;;;12.25;8.70;;;11.80;99.90;;;;;;5019706;28;20029;-86
2022/11/19 10:01:06;;;;;;;11.30;9.05;;;12.10;99.90;;;;;;5012946;28;20378;-85
2022/11/19 10:03:49;;;;;;;10.68;8.68;;;12.10;99.90;;;;;;5013004;28;20036;-85
2022/11/19 10:06:27;;;;;;;11.32;8.57;;;12.20;99.90;;;;;;5009912;28;20546;-86
2022/11/19 10:09:03;;;;;;;10.00;8.52;;;12.50;99.90;;;;;;5016447;28;20072;-85
2022/11/19 10:11:53;;;;;;;10.65;8.77;;;12.90;99.90;;;;;;5013151;28;20068;-87
2022/11/19 10:14:38;;;;;;;9.48;8.23;;;13.20;99.90;;;;;;5010316;28;20062;-86
2022/11/19 10:17:41;;;;;;;9.98;7.90;;;12.80;99.90;;;;;;5008508;28;20064;-85
2022/11/19 10:20:25;;;;;;;9.60;7.67;;;12.20;99.90;;;;;;5004813;28;20367;-86
2022/11/19 10:22:55;;;;;;;10.10;7.25;;;12.20;99.90;;;;;;5012356;28;20359;-86
2022/11/19 10:25:27;;;;;;;9.73;7.80;;;12.70;99.90;;;;;;5006397;28;20022;-85
2022/11/19 10:28:41;;;;;;;9.35;7.72;;;12.70;99.90;;;;;;5003117;28;20091;-86
2022/11/19 10:31:21;;;;;;;9.07;7.47;;;12.80;99.90;;;;;;5009494;28;20037;-85
2022/11/19 10:34:09;;;;;;;9.52;7.55;;;13.40;99.90;;;;;;5015901;28;20049;-86
2022/11/19 10:36:51;;;;;;;10.07;8.25;;;13.70;99.90;;;;;;5007407;28;20049;-86
2022/11/19 10:39:29;;;;;;;9.50;7.45;;;13.70;99.90;;;;;;5006978;28;20038;-89
2022/11/19 10:42:17;;;;;;;9.85;8.55;;;13.70;99.90;;;;;;5009367;28;20025;-85
2022/11/19 10:45:11;;;;;;;9.63;7.90;;;13.80;99.90;;;;;;5012152;28;20025;-85
2022/11/19 10:47:52;;;;;;;10.07;7.90;;;14.00;99.90;;;;;;5001830;28;20038;-85
2022/11/19 10:50:26;;;;;;;8.32;7.10;;;14.30;99.90;;;;;;5012713;28;20041;-85
2022/11/19 10:53:25;;;;;;;7.72;6.38;;;14.70;99.90;;;;;;5003008;28;20037;-84
2022/11/19 10:56:04;;;;;;;8.70;6.93;;;15.00;99.90;;;;;;5010844;28;20116;-82
2022/11/19 10:58:39;;;;;;;7.32;6.35;;;14.90;99.90;;;;;;5008419;28;20356;-85
2022/11/19 11:01:15;;;;;;;7.13;5.78;;;14.90;99.90;;;;;;5013630;28;20029;-85
2022/11/19 11:04:06;;;;;;;8.13;6.30;;;15.10;99.90;;;;;;4993004;28;20390;-84
2022/11/19 11:07:01;;;;;;;7.72;6.50;;;15.50;99.90;;;;;;4993036;28;20042;-84
2022/11/19 11:09:42;;;;;;;7.60;6.13;;;15.60;99.90;;;;;;4995026;28;20023;-85
2022/11/19 11:15:16;;;;;;;7.15;6.15;;;15.70;99.90;;;;;;5002076;28;20088;-91
2022/11/19 11:18:16;;;;;;;7.03;6.10;;;15.60;99.90;;;;;;5006074;28;20453;-86
2022/11/19 11:21:23;;;;;;;7.38;6.00;;;15.60;99.90;;;;;;5002152;28;20601;-87
2022/11/19 11:23:56;;;;;;;6.15;5.38;;;15.80;99.90;;;;;;5017675;28;20034;-82
2022/11/19 11:26:28;;;;;;;7.55;5.80;;;15.70;99.90;;;;;;5003609;28;20061;-88
2022/11/19 11:29:18;;;;;;;6.90;5.47;;;15.90;99.90;;;;;;5012289;28;20391;-86
2022/11/19 11:31:48;;;;;;;6.90;5.55;;;16.10;99.90;;;;;;5012533;28;20481;-86
2022/11/19 11:34:34;;;;;;;6.40;5.43;;;16.30;99.90;;;;;;5013820;28;20025;-84
2022/11/19 11:37:03;;;;;;;6.35;5.15;;;16.40;99.90;;;;;;5010682;28;20050;-85
2022/11/19 11:39:37;;;;;;;5.93;5.18;;;16.60;99.90;;;;;;5012291;28;20061;-85
2022/11/19 11:42:16;;;;;;;6.32;5.30;;;16.60;99.70;;;;;;4996887;28;20117;-85
2022/11/19 11:45:02;;;;;;;5.78;4.75;;;16.60;99.40;;;;;;5007606;28;20112;-86
2022/11/19 11:47:35;;;;;;;6.70;5.22;;;16.50;99.40;;;;;;5022844;28;20025;-85
2022/11/19 11:50:22;;;;;;;7.15;5.70;;;16.50;99.80;;;;;;5011157;28;20033;-85
2022/11/19 11:52:51;;;;;;;6.43;5.57;;;16.30;98.90;;;;;;5002994;28;20022;-85
2022/11/19 11:55:32;;;;;;;6.95;5.43;;;15.00;98.90;;;;;;5012045;28;20025;-86
2022/11/19 11:58:23;;;;;;;6.72;5.80;;;13.10;99.90;;;;;;5015624;28;20044;-86
2022/11/19 12:00:53;;;;;;;7.55;6.35;;;11.30;99.90;;;;;;5011619;28;20037;-86
2022/11/19 12:03:19;;;;;;;7.65;6.35;;;9.80;99.90;;;;;;5012063;28;20061;-84
2022/11/19 12:06:15;;;;;;;7.35;5.90;;;8.70;99.90;;;;;;5014287;28;20056;-85
2022/11/19 12:09:04;;;;;;;8.23;6.13;;;8.20;99.90;;;;;;5006295;28;20369;-85
2022/11/19 12:11:58;;;;;;;7.38;5.85;;;7.70;99.90;;;;;;5009192;28;20033;-85
2022/11/19 12:14:38;;;;;;;8.05;5.63;;;7.30;99.90;;;;;;5018913;28;20386;-85
2022/11/19 12:17:09;;;;;;;6.82;5.63;;;7.10;99.90;;;;;;5014523;28;20133;-85
2022/11/19 12:20:00;;;;;;;8.20;6.60;;;6.80;99.90;;;;;;5011166;28;20029;-84
2022/11/19 12:22:40;;;;;;;8.05;6.03;;;6.60;99.90;;;;;;5009593;28;20034;-85
2022/11/19 12:25:50;;;;;;;8.70;6.65;;;6.50;99.90;;;;;;5002423;28;20057;-84
2022/11/19 12:28:54;;;;;;;8.20;6.20;;;6.40;99.90;;;;;;5015398;28;20022;-85
2022/11/19 12:31:55;;;;;;;8.18;6.22;;;6.30;99.90;;;;;;5002551;28;20108;-83
2022/11/19 12:34:50;;;;;;;6.75;5.55;;;6.20;99.90;;;;;;4924934;28;20503;-84
2022/11/19 12:37:46;;;;;;;7.03;5.20;;;6.10;99.90;;;;;;5006191;28;20528;-85
2022/11/19 12:40:24;;;;;;;7.72;5.18;;;6.10;99.90;;;;;;5018391;28;20389;-85
2022/11/19 12:43:08;;;;;;;6.80;5.00;;;6.10;99.90;;;;;;5023142;28;20478;-85
2022/11/19 12:46:03;;;;;;;6.55;4.68;;;6.10;99.90;;;;;;5014686;28;20056;-85
2022/11/19 12:49:22;;;;;;;7.32;4.90;;;6.10;99.90;;;;;;5008432;28;20120;-84
2022/11/19 12:52:26;;;;;;;6.28;4.55;;;6.40;99.90;;;;;;4942069;28;20479;-85
2022/11/19 12:55:23;;;;;;;5.88;4.35;;;7.80;99.90;;;;;;4955976;28;20039;-87
2022/11/19 12:58:57;;;;;;;6.18;4.03;;;9.80;99.90;;;;;;4961450;28;20078;-84
2022/11/19 13:01:33;;;;;;;5.43;4.03;;;11.10;99.90;;;;;;5010020;28;20048;-85
2022/11/19 13:04:26;;;;;;;5.30;3.97;;;12.30;99.90;;;;;;5001194;28;20036;-86
2022/11/19 13:07:06;;;;;;;4.15;3.25;;;13.10;99.90;;;;;;5007963;28;20385;-86
2022/11/19 13:10:19;;;;;;;3.45;2.72;;;13.70;99.90;;;;;;5000334;28;20023;-87
2022/11/19 13:12:51;;;;;;;4.53;3.22;;;14.30;99.90;;;;;;4962165;28;20033;-87
2022/11/19 13:15:41;;;;;;;3.90;2.90;;;14.50;99.90;;;;;;5013067;28;20133;-86
2022/11/19 13:18:30;;;;;;;5.30;3.78;;;14.30;99.90;;;;;;5013672;28;20030;-87
2022/11/19 13:21:15;;;;;;;3.58;2.85;;;14.20;99.90;;;;;;5015921;28;20104;-87
2022/11/19 13:24:07;;;;;;;4.40;2.97;;;14.30;99.90;;;;;;5004365;28;20029;-85
2022/11/19 13:27:11;;;;;;;4.55;3.35;;;14.30;99.90;;;;;;5012791;28;20041;-85
2022/11/19 13:29:55;;;;;;;;;;;14.20;99.90;;;;;;5002658;28;20103;-86
2022/11/19 13:32:59;;;;;;;3.55;2.75;;;12.90;99.90;;;;;;5008981;28;19901;-86
2022/11/19 13:36:04;;;;;;;4.68;3.70;;;11.20;99.90;;;;;;5011437;28;20363;-86
2022/11/19 13:38:57;;;;;;;4.55;3.42;;;9.50;99.90;;;;;;4957055;28;20037;-85
2022/11/19 13:44:51;;;;;;;5.05;3.50;;;7.80;99.90;;;;;;4988684;28;20049;-86
2022/11/19 13:47:38;;;;;;;4.88;3.13;;;7.20;99.90;;;;;;4972796;28;20045;-87
2022/11/19 13:50:27;;;;;;;4.82;3.45;;;6.80;99.90;;;;;;4972652;28;20047;-87